METAR Data
IDs: Format: Raw Decoded Include TAF

Data at: 0021 UTC 30 May 2020

METAR for:KHSE (Hatteras/Mitchell Fl, NC, US)
Text:KHSE 292351Z AUTO 22003KT 6SM BR FEW025 BKN034 OVC080 25/23 A3006 RMK AO2 SLP178 60002 T02500233 10272 20250 58002
Temperature: 25.0°C ( 77°F)
Dewpoint: 23.3°C ( 74°F) [RH = 90%]
Pressure (altimeter):30.06 inches Hg (1018.0 mb) [Sea level pressure: 1017.8 mb]
Winds:from the SW (220 degrees) at 3 MPH (3 knots; 1.5 m/s)
Visibility: 6 sm ( 10 km)
Ceiling:3400 feet AGL
Clouds: few clouds at 2500 feet AGL, broken clouds at 3400 feet AGL, overcast cloud deck at 8000 feet AGL
Weather:BR (mist)
QC Flag:automated observation with no human augmentation
Text:KHSE 292251Z AUTO 20006KT 8SM FEW029 SCT045 OVC055 26/23 A3006 RMK AO2 SLP178 T02560233
Temperature: 25.6°C ( 78°F)
Dewpoint: 23.3°C ( 74°F) [RH = 87%]
Pressure (altimeter):30.06 inches Hg (1018.0 mb) [Sea level pressure: 1017.8 mb]
Winds:from the SSW (200 degrees) at 7 MPH (6 knots; 3.1 m/s)
Visibility: 8 sm ( 13 km)
Ceiling:5500 feet AGL
Clouds: few clouds at 2900 feet AGL, scattered clouds at 4500 feet AGL, overcast cloud deck at 5500 feet AGL
QC Flag:automated observation with no human augmentation
Text:KHSE 292234Z AUTO 20006KT 9SM FEW020 BKN029 BKN045 26/23 A3006 RMK AO2 T02560233
Temperature: 25.6°C ( 78°F)
Dewpoint: 23.3°C ( 74°F) [RH = 87%]
Pressure (altimeter):30.06 inches Hg (1018.0 mb)
Winds:from the SSW (200 degrees) at 7 MPH (6 knots; 3.1 m/s)
Visibility: 9 sm ( 14 km)
Ceiling:2900 feet AGL
Clouds: few clouds at 2000 feet AGL, broken clouds at 2900 feet AGL, broken clouds at 4500 feet AGL
QC Flag:automated observation with no human augmentation
Text:KHSE 292151Z AUTO 19007KT 10SM BKN055 26/23 A3006 RMK AO2 SLP180 T02560228
Temperature: 25.6°C ( 78°F)
Dewpoint: 22.8°C ( 73°F) [RH = 85%]
Pressure (altimeter):30.06 inches Hg (1018.0 mb) [Sea level pressure: 1018.0 mb]
Winds:from the S (190 degrees) at 8 MPH (7 knots; 3.6 m/s)
Visibility:10 or more sm (16+ km)
Ceiling:5500 feet AGL
Clouds: broken clouds at 5500 feet AGL
QC Flag:automated observation with no human augmentation
Text:KHSE 292051Z AUTO 20008KT 9SM CLR 27/24 A3006 RMK AO2 LTG DSNT W SLP179 60002 T02720239 55012
Temperature: 27.2°C ( 81°F)
Dewpoint: 23.9°C ( 75°F) [RH = 82%]
Pressure (altimeter):30.06 inches Hg (1018.0 mb) [Sea level pressure: 1017.9 mb]
Winds:from the SSW (200 degrees) at 9 MPH (8 knots; 4.1 m/s)
Visibility: 9 sm ( 14 km)
Ceiling:at least 12,000 feet AGL
Clouds:sky clear below 12,000 feet AGL
QC Flag:automated observation with no human augmentation
Text:KHSE 291951Z AUTO 19008KT 10SM CLR 27/24 A3006 RMK AO2 SLP178 T02720239
Temperature: 27.2°C ( 81°F)
Dewpoint: 23.9°C ( 75°F) [RH = 82%]
Pressure (altimeter):30.06 inches Hg (1018.0 mb) [Sea level pressure: 1017.8 mb]
Winds:from the S (190 degrees) at 9 MPH (8 knots; 4.1 m/s)
Visibility:10 or more sm (16+ km)
Ceiling:at least 12,000 feet AGL
Clouds:sky clear below 12,000 feet AGL
QC Flag:automated observation with no human augmentation
Text:KHSE 291851Z AUTO 18009KT 9SM BKN032 27/24 A3008 RMK AO2 SLP186 P0002 T02670239
Temperature: 26.7°C ( 80°F)
Dewpoint: 23.9°C ( 75°F) [RH = 85%]
Pressure (altimeter):30.08 inches Hg (1018.7 mb) [Sea level pressure: 1018.6 mb]
Winds:from the S (180 degrees) at 10 MPH (9 knots; 4.6 m/s)
Visibility: 9 sm ( 14 km)
Ceiling:3200 feet AGL
Clouds: broken clouds at 3200 feet AGL
QC Flag:automated observation with no human augmentation
Text:KHSE 291815Z AUTO 14006KT 6SM BR FEW007 SCT015 BKN060 26/24 A3009 RMK AO2 T02560244
Temperature: 25.6°C ( 78°F)
Dewpoint: 24.4°C ( 76°F) [RH = 93%]
Pressure (altimeter):30.09 inches Hg (1019.0 mb)
Winds:from the SE (140 degrees) at 7 MPH (6 knots; 3.1 m/s)
Visibility: 6 sm ( 10 km)
Ceiling:6000 feet AGL
Clouds: few clouds at 700 feet AGL, scattered clouds at 1500 feet AGL, broken clouds at 6000 feet AGL
Weather:BR (mist)
QC Flag:automated observation with no human augmentation
Text:KHSE 291751Z AUTO 15005KT 3SM BR FEW044 SCT055 SCT070 25/24 A3010 RMK AO2 RAE41 SLP191 P0003 60069 T02500239 10250 20228 58007
Temperature: 25.0°C ( 77°F)
Dewpoint: 23.9°C ( 75°F) [RH = 94%]
Pressure (altimeter):30.10 inches Hg (1019.4 mb) [Sea level pressure: 1019.1 mb]
Winds:from the SSE (150 degrees) at 6 MPH (5 knots; 2.6 m/s)
Visibility: 3 sm ( 5 km)
Ceiling:at least 12,000 feet AGL
Clouds: few clouds at 4400 feet AGL, scattered clouds at 5500 feet AGL, scattered clouds at 7000 feet AGL
Weather:BR (mist)
QC Flag:automated observation with no human augmentation
Text:KHSE 291705Z AUTO 22007KT 3SM -RA BR BKN048 BKN065 OVC080 23/22 A3011 RMK AO2 P0002 T02330217
Temperature: 23.3°C ( 74°F)
Dewpoint: 21.7°C ( 71°F) [RH = 91%]
Pressure (altimeter):30.11 inches Hg (1019.7 mb)
Winds:from the SW (220 degrees) at 8 MPH (7 knots; 3.6 m/s)
Visibility: 3 sm ( 5 km)
Ceiling:4800 feet AGL
Clouds: broken clouds at 4800 feet AGL, broken clouds at 6500 feet AGL, overcast cloud deck at 8000 feet AGL
Weather:-RA BR (light rain, mist)
QC Flag:automated observation with no human augmentation
Text:KHSE 291651Z AUTO 22008KT 2SM RA BR BKN046 BKN065 OVC095 23/22 A3012 RMK AO2 SLP199 P0007 T02280217
Temperature: 22.8°C ( 73°F)
Dewpoint: 21.7°C ( 71°F) [RH = 94%]
Pressure (altimeter):30.12 inches Hg (1020.1 mb) [Sea level pressure: 1019.9 mb]
Winds:from the SW (220 degrees) at 9 MPH (8 knots; 4.1 m/s)
Visibility: 2.00 sm ( 3.22 km)
Ceiling:4600 feet AGL
Clouds: broken clouds at 4600 feet AGL, broken clouds at 6500 feet AGL, overcast cloud deck at 9500 feet AGL
Weather:RA BR (moderate rain, mist)
QC Flag:automated observation with no human augmentation
Text:KHSE 291639Z AUTO 21012KT 2 1/2SM RA BR FEW012 BKN050 OVC100 24/22 A3013 RMK AO2 P0002 T02390222
Temperature: 23.9°C ( 75°F)
Dewpoint: 22.2°C ( 72°F) [RH = 90%]
Pressure (altimeter):30.13 inches Hg (1020.4 mb)
Winds:from the SSW (210 degrees) at 14 MPH (12 knots; 6.2 m/s)
Visibility: 2.50 sm ( 4.02 km)
Ceiling:5000 feet AGL
Clouds: few clouds at 1200 feet AGL, broken clouds at 5000 feet AGL, overcast cloud deck at 10000 feet AGL
Weather:RA BR (moderate rain, mist)
QC Flag:automated observation with no human augmentation
Text:KHSE 291632Z AUTO 22007KT 3SM RA BR FEW009 BKN055 OVC070 24/23 A3013 RMK AO2 P0001 T02390228
Temperature: 23.9°C ( 75°F)
Dewpoint: 22.8°C ( 73°F) [RH = 94%]
Pressure (altimeter):30.13 inches Hg (1020.4 mb)
Winds:from the SW (220 degrees) at 8 MPH (7 knots; 3.6 m/s)
Visibility: 3 sm ( 5 km)
Ceiling:5500 feet AGL
Clouds: few clouds at 900 feet AGL, broken clouds at 5500 feet AGL, overcast cloud deck at 7000 feet AGL
Weather:RA BR (moderate rain, mist)
QC Flag:automated observation with no human augmentation
Text:KHSE 291558Z AUTO 20008KT 5SM -RA BR SCT044 BKN060 OVC090 24/23 A3013 RMK AO2 P0000 T02390228
Temperature: 23.9°C ( 75°F)
Dewpoint: 22.8°C ( 73°F) [RH = 94%]
Pressure (altimeter):30.13 inches Hg (1020.4 mb)
Winds:from the SSW (200 degrees) at 9 MPH (8 knots; 4.1 m/s)
Visibility: 5 sm ( 8 km)
Ceiling:6000 feet AGL
Clouds: scattered clouds at 4400 feet AGL, broken clouds at 6000 feet AGL, overcast cloud deck at 9000 feet AGL
Weather:-RA BR (light rain, mist)
QC Flag:automated observation with no human augmentation
Text:KHSE 291551Z AUTO 20009KT 2 1/2SM RA BR FEW023 BKN090 OVC100 24/23 A3012 RMK AO2 SLP200 P0005 T02390228
Temperature: 23.9°C ( 75°F)
Dewpoint: 22.8°C ( 73°F) [RH = 94%]
Pressure (altimeter):30.12 inches Hg (1020.1 mb) [Sea level pressure: 1020.0 mb]
Winds:from the SSW (200 degrees) at 10 MPH (9 knots; 4.6 m/s)
Visibility: 2.50 sm ( 4.02 km)
Ceiling:9000 feet AGL
Clouds: few clouds at 2300 feet AGL, broken clouds at 9000 feet AGL, overcast cloud deck at 10000 feet AGL
Weather:RA BR (moderate rain, mist)
QC Flag:automated observation with no human augmentation
Text:KHSE 291540Z AUTO 21010G16KT 2 1/2SM RA BR SCT023 BKN043 OVC110 24/22 A3012 RMK AO2 P0003 T02390222
Temperature: 23.9°C ( 75°F)
Dewpoint: 22.2°C ( 72°F) [RH = 90%]
Pressure (altimeter):30.12 inches Hg (1020.1 mb)
Winds:from the SSW (210 degrees) at 12 MPH (10 knots; 5.1 m/s) gusting to 18 MPH (16 knots; 8.2 m/s)
Visibility: 2.50 sm ( 4.02 km)
Ceiling:4300 feet AGL
Clouds: scattered clouds at 2300 feet AGL, broken clouds at 4300 feet AGL, overcast cloud deck at 11000 feet AGL
Weather:RA BR (moderate rain, mist)
QC Flag:automated observation with no human augmentation
Text:KHSE 291515Z AUTO 20009G17KT 5SM -RA BR FEW008 BKN021 OVC080 23/22 A3012 RMK AO2 P0000 T02330222
Temperature: 23.3°C ( 74°F)
Dewpoint: 22.2°C ( 72°F) [RH = 94%]
Pressure (altimeter):30.12 inches Hg (1020.1 mb)
Winds:from the SSW (200 degrees) at 10 MPH (9 knots; 4.6 m/s) gusting to 20 MPH (17 knots; 8.7 m/s)
Visibility: 5 sm ( 8 km)
Ceiling:2100 feet AGL
Clouds: few clouds at 800 feet AGL, broken clouds at 2100 feet AGL, overcast cloud deck at 8000 feet AGL
Weather:-RA BR (light rain, mist)
QC Flag:automated observation with no human augmentation
Text:KHSE 291508Z AUTO 20012G17KT 5SM -RA BR BKN013 BKN026 OVC060 24/22 A3012 RMK AO2 P0000 T02390222
Temperature: 23.9°C ( 75°F)
Dewpoint: 22.2°C ( 72°F) [RH = 90%]
Pressure (altimeter):30.12 inches Hg (1020.1 mb)
Winds:from the SSW (200 degrees) at 14 MPH (12 knots; 6.2 m/s) gusting to 20 MPH (17 knots; 8.7 m/s)
Visibility: 5 sm ( 8 km)
Ceiling:1300 feet AGL
Clouds: broken clouds at 1300 feet AGL, broken clouds at 2600 feet AGL, overcast cloud deck at 6000 feet AGL
Weather:-RA BR (light rain, mist)
QC Flag:automated observation with no human augmentation
Text:KHSE 291451Z AUTO 18005KT 5SM -RA BR SCT027 BKN060 OVC100 23/22 A3012 RMK AO2 SLP198 P0019 60054 T02330222 58006
Temperature: 23.3°C ( 74°F)
Dewpoint: 22.2°C ( 72°F) [RH = 94%]
Pressure (altimeter):30.12 inches Hg (1020.1 mb) [Sea level pressure: 1019.8 mb]
Winds:from the S (180 degrees) at 6 MPH (5 knots; 2.6 m/s)
Visibility: 5 sm ( 8 km)
Ceiling:6000 feet AGL
Clouds: scattered clouds at 2700 feet AGL, broken clouds at 6000 feet AGL, overcast cloud deck at 10000 feet AGL
Weather:-RA BR (light rain, mist)
QC Flag:automated observation with no human augmentation
Text:KHSE 291424Z AUTO 18003KT 2SM RA BR FEW020 BKN044 OVC080 23/23 A3013 RMK AO2 P0016 T02330228
Temperature: 23.3°C ( 74°F)
Dewpoint: 22.8°C ( 73°F) [RH = 97%]
Pressure (altimeter):30.13 inches Hg (1020.4 mb)
Winds:from the S (180 degrees) at 3 MPH (3 knots; 1.5 m/s)
Visibility: 2.00 sm ( 3.22 km)
Ceiling:4400 feet AGL
Clouds: few clouds at 2000 feet AGL, broken clouds at 4400 feet AGL, overcast cloud deck at 8000 feet AGL
Weather:RA BR (moderate rain, mist)
QC Flag:automated observation with no human augmentation
Text:KHSE 291351Z AUTO 21009KT 1SM RA BR FEW005 BKN036 OVC055 24/23 A3014 RMK AO2 SLP205 P0028 T02390228
Temperature: 23.9°C ( 75°F)
Dewpoint: 22.8°C ( 73°F) [RH = 94%]
Pressure (altimeter):30.14 inches Hg (1020.7 mb) [Sea level pressure: 1020.5 mb]
Winds:from the SSW (210 degrees) at 10 MPH (9 knots; 4.6 m/s)
Visibility: 1.00 sm ( 1.61 km)
Ceiling:3600 feet AGL
Clouds: few clouds at 500 feet AGL, broken clouds at 3600 feet AGL, overcast cloud deck at 5500 feet AGL
Weather:RA BR (moderate rain, mist)
QC Flag:automated observation with no human augmentation
Text:KHSE 291343Z AUTO 20008KT 3/4SM +RA BR FEW005 BKN034 OVC060 24/23 A3014 RMK AO2 LTG DSNT SE P0022 T02390228
Temperature: 23.9°C ( 75°F)
Dewpoint: 22.8°C ( 73°F) [RH = 94%]
Pressure (altimeter):30.14 inches Hg (1020.7 mb)
Winds:from the SSW (200 degrees) at 9 MPH (8 knots; 4.1 m/s)
Visibility: 0.75 sm ( 1.21 km)
Ceiling:3400 feet AGL
Clouds: few clouds at 500 feet AGL, broken clouds at 3400 feet AGL, overcast cloud deck at 6000 feet AGL
Weather:+RA BR (heavy rain, mist)
QC Flag:automated observation with no human augmentation
Text:KHSE 291331Z AUTO 21011G15KT 1SM +RA BR FEW006 SCT038 OVC060 24/23 A3014 RMK AO2 P0010 T02390228
Temperature: 23.9°C ( 75°F)
Dewpoint: 22.8°C ( 73°F) [RH = 94%]
Pressure (altimeter):30.14 inches Hg (1020.7 mb)
Winds:from the SSW (210 degrees) at 13 MPH (11 knots; 5.7 m/s) gusting to 17 MPH (15 knots; 7.7 m/s)
Visibility: 1.00 sm ( 1.61 km)
Ceiling:6000 feet AGL
Clouds: few clouds at 600 feet AGL, scattered clouds at 3800 feet AGL, overcast cloud deck at 6000 feet AGL
Weather:+RA BR (heavy rain, mist)
QC Flag:automated observation with no human augmentation
Text:KHSE 291322Z AUTO 22009KT 1 3/4SM RA BR FEW006 SCT012 OVC060 24/23 A3014 RMK AO2 LTG DSNT SE P0004 T02390228
Temperature: 23.9°C ( 75°F)
Dewpoint: 22.8°C ( 73°F) [RH = 94%]
Pressure (altimeter):30.14 inches Hg (1020.7 mb)
Winds:from the SW (220 degrees) at 10 MPH (9 knots; 4.6 m/s)
Visibility: 1.75 sm ( 2.82 km)
Ceiling:6000 feet AGL
Clouds: few clouds at 600 feet AGL, scattered clouds at 1200 feet AGL, overcast cloud deck at 6000 feet AGL
Weather:RA BR (moderate rain, mist)
QC Flag:automated observation with no human augmentation
Text:KHSE 291315Z AUTO 20007KT 3SM -RA BR FEW007 OVC060 24/23 A3014 RMK AO2 P0003 T02390228
Temperature: 23.9°C ( 75°F)
Dewpoint: 22.8°C ( 73°F) [RH = 94%]
Pressure (altimeter):30.14 inches Hg (1020.7 mb)
Winds:from the SSW (200 degrees) at 8 MPH (7 knots; 3.6 m/s)
Visibility: 3 sm ( 5 km)
Ceiling:6000 feet AGL
Clouds: few clouds at 700 feet AGL, overcast cloud deck at 6000 feet AGL
Weather:-RA BR (light rain, mist)
QC Flag:automated observation with no human augmentation
Text:KHSE 291251Z AUTO 21007KT 2 1/2SM -RA BR FEW007 BKN045 OVC060 24/23 A3014 RMK AO2 SLP205 P0007 T02390228
Temperature: 23.9°C ( 75°F)
Dewpoint: 22.8°C ( 73°F) [RH = 94%]
Pressure (altimeter):30.14 inches Hg (1020.7 mb) [Sea level pressure: 1020.5 mb]
Winds:from the SSW (210 degrees) at 8 MPH (7 knots; 3.6 m/s)
Visibility: 2.50 sm ( 4.02 km)
Ceiling:4500 feet AGL
Clouds: few clouds at 700 feet AGL, broken clouds at 4500 feet AGL, overcast cloud deck at 6000 feet AGL
Weather:-RA BR (light rain, mist)
QC Flag:automated observation with no human augmentation
Text:KHSE 291238Z AUTO 22006KT 1 3/4SM RA BR FEW008 BKN044 OVC055 24/23 A3014 RMK AO2 P0006 T02390228
Temperature: 23.9°C ( 75°F)
Dewpoint: 22.8°C ( 73°F) [RH = 94%]
Pressure (altimeter):30.14 inches Hg (1020.7 mb)
Winds:from the SW (220 degrees) at 7 MPH (6 knots; 3.1 m/s)
Visibility: 1.75 sm ( 2.82 km)
Ceiling:4400 feet AGL
Clouds: few clouds at 800 feet AGL, broken clouds at 4400 feet AGL, overcast cloud deck at 5500 feet AGL
Weather:RA BR (moderate rain, mist)
QC Flag:automated observation with no human augmentation
Text:KHSE 291226Z AUTO 23006KT 1 3/4SM +RA BR SCT006 BKN021 OVC042 24/23 A3014 RMK AO2 P0002 T02390228
Temperature: 23.9°C ( 75°F)
Dewpoint: 22.8°C ( 73°F) [RH = 94%]
Pressure (altimeter):30.14 inches Hg (1020.7 mb)
Winds:from the SW (230 degrees) at 7 MPH (6 knots; 3.1 m/s)
Visibility: 1.75 sm ( 2.82 km)
Ceiling:2100 feet AGL
Clouds: scattered clouds at 600 feet AGL, broken clouds at 2100 feet AGL, overcast cloud deck at 4200 feet AGL
Weather:+RA BR (heavy rain, mist)
QC Flag:automated observation with no human augmentation
Text:KHSE 291204Z AUTO 21007KT 3SM -RA BR SCT006 BKN027 OVC046 24/23 A3014 RMK AO2 P0001 T02390228
Temperature: 23.9°C ( 75°F)
Dewpoint: 22.8°C ( 73°F) [RH = 94%]
Pressure (altimeter):30.14 inches Hg (1020.7 mb)
Winds:from the SSW (210 degrees) at 8 MPH (7 knots; 3.6 m/s)
Visibility: 3 sm ( 5 km)
Ceiling:2700 feet AGL
Clouds: scattered clouds at 600 feet AGL, broken clouds at 2700 feet AGL, overcast cloud deck at 4600 feet AGL
Weather:-RA BR (light rain, mist)
QC Flag:automated observation with no human augmentation
Text:KHSE 291156Z AUTO 22008KT 2 1/2SM RA BR FEW006 BKN037 OVC046 24/23 A3014 RMK AO2 P0001 T02390228
Temperature: 23.9°C ( 75°F)
Dewpoint: 22.8°C ( 73°F) [RH = 94%]
Pressure (altimeter):30.14 inches Hg (1020.7 mb)
Winds:from the SW (220 degrees) at 9 MPH (8 knots; 4.1 m/s)
Visibility: 2.50 sm ( 4.02 km)
Ceiling:3700 feet AGL
Clouds: few clouds at 600 feet AGL, broken clouds at 3700 feet AGL, overcast cloud deck at 4600 feet AGL
Weather:RA BR (moderate rain, mist)
QC Flag:automated observation with no human augmentation
Text:KHSE 291151Z AUTO 22008KT 1 3/4SM RA BR FEW030 BKN046 OVC080 24/23 A3014 RMK AO2 RAB09 SLP204 P0017 60112 70143 T02390228 10256 20233 51003
Temperature: 23.9°C ( 75°F)
Dewpoint: 22.8°C ( 73°F) [RH = 94%]
Pressure (altimeter):30.14 inches Hg (1020.7 mb) [Sea level pressure: 1020.4 mb]
Winds:from the SW (220 degrees) at 9 MPH (8 knots; 4.1 m/s)
Visibility: 1.75 sm ( 2.82 km)
Ceiling:4600 feet AGL
Clouds: few clouds at 3000 feet AGL, broken clouds at 4600 feet AGL, overcast cloud deck at 8000 feet AGL
Weather:RA BR (moderate rain, mist)
QC Flag:automated observation with no human augmentation
Text:KHSE 291132Z AUTO 22009KT 1 1/4SM +RA BR SCT008 BKN036 OVC044 24/22 A3013 RMK AO2 RAB09 P0007 T02390222
Temperature: 23.9°C ( 75°F)
Dewpoint: 22.2°C ( 72°F) [RH = 90%]
Pressure (altimeter):30.13 inches Hg (1020.4 mb)
Winds:from the SW (220 degrees) at 10 MPH (9 knots; 4.6 m/s)
Visibility: 1.25 sm ( 2.01 km)
Ceiling:3600 feet AGL
Clouds: scattered clouds at 800 feet AGL, broken clouds at 3600 feet AGL, overcast cloud deck at 4400 feet AGL
Weather:+RA BR (heavy rain, mist)
QC Flag:automated observation with no human augmentation
Text:KHSE 291121Z AUTO 22008G15KT 1 3/4SM RA BR BKN008 OVC035 24/22 A3014 RMK AO2 RAB09 P0003 T02390222
Temperature: 23.9°C ( 75°F)
Dewpoint: 22.2°C ( 72°F) [RH = 90%]
Pressure (altimeter):30.14 inches Hg (1020.7 mb)
Winds:from the SW (220 degrees) at 9 MPH (8 knots; 4.1 m/s) gusting to 17 MPH (15 knots; 7.7 m/s)
Visibility: 1.75 sm ( 2.82 km)
Ceiling:800 feet AGL
Clouds: broken clouds at 800 feet AGL, overcast cloud deck at 3500 feet AGL
Weather:RA BR (moderate rain, mist)
QC Flag:automated observation with no human augmentation
Text:KHSE 291106Z AUTO 20006KT 5SM BR OVC008 24/23 A3014 RMK AO2 CIG 007V013 T02390228
Temperature: 23.9°C ( 75°F)
Dewpoint: 22.8°C ( 73°F) [RH = 94%]
Pressure (altimeter):30.14 inches Hg (1020.7 mb)
Winds:from the SSW (200 degrees) at 7 MPH (6 knots; 3.1 m/s)
Visibility: 5 sm ( 8 km)
Ceiling:800 feet AGL
Clouds: overcast cloud deck at 800 feet AGL
Weather:BR (mist)
QC Flag:automated observation with no human augmentation
Text:KHSE 291051Z AUTO 15009KT 4SM BR BKN011 OVC018 24/23 A3013 RMK AO2 RAB17E46 SLP204 P0032 T02390228
Temperature: 23.9°C ( 75°F)
Dewpoint: 22.8°C ( 73°F) [RH = 94%]
Pressure (altimeter):30.13 inches Hg (1020.4 mb) [Sea level pressure: 1020.4 mb]
Winds:from the SSE (150 degrees) at 10 MPH (9 knots; 4.6 m/s)
Visibility: 4 sm ( 6 km)
Ceiling:1100 feet AGL
Clouds: broken clouds at 1100 feet AGL, overcast cloud deck at 1800 feet AGL
Weather:BR (mist)
QC Flag:automated observation with no human augmentation
Text:KHSE 291047Z AUTO 18007KT 3SM BR BKN011 OVC018 24/23 A3013 RMK AO2 RAB17E46 P0032
Temperature: 24.0°C ( 75°F)
Dewpoint: 23.0°C ( 73°F) [RH = 94%]
Pressure (altimeter):30.13 inches Hg (1020.4 mb)
Winds:from the S (180 degrees) at 8 MPH (7 knots; 3.6 m/s)
Visibility: 3 sm ( 5 km)
Ceiling:1100 feet AGL
Clouds: broken clouds at 1100 feet AGL, overcast cloud deck at 1800 feet AGL
Weather:BR (mist)
QC Flag:automated observation with no human augmentation
Text:KHSE 291042Z AUTO 17008KT 1 1/2SM -RA BR BKN011 OVC018 24/23 A3013 RMK AO2 RAB17 P0032 T02390228
Temperature: 23.9°C ( 75°F)
Dewpoint: 22.8°C ( 73°F) [RH = 94%]
Pressure (altimeter):30.13 inches Hg (1020.4 mb)
Winds:from the S (170 degrees) at 9 MPH (8 knots; 4.1 m/s)
Visibility: 1.50 sm ( 2.41 km)
Ceiling:1100 feet AGL
Clouds: broken clouds at 1100 feet AGL, overcast cloud deck at 1800 feet AGL
Weather:-RA BR (light rain, mist)
QC Flag:automated observation with no human augmentation
Text:KHSE 291028Z AUTO 18011G19KT 1 1/4SM +RA BR FEW008 SCT013 OVC018 24/22 A3014 RMK AO2 RAB17 P0013 T02390222
Temperature: 23.9°C ( 75°F)
Dewpoint: 22.2°C ( 72°F) [RH = 90%]
Pressure (altimeter):30.14 inches Hg (1020.7 mb)
Winds:from the S (180 degrees) at 13 MPH (11 knots; 5.7 m/s) gusting to 22 MPH (19 knots; 9.8 m/s)
Visibility: 1.25 sm ( 2.01 km)
Ceiling:1800 feet AGL
Clouds: few clouds at 800 feet AGL, scattered clouds at 1300 feet AGL, overcast cloud deck at 1800 feet AGL
Weather:+RA BR (heavy rain, mist)
QC Flag:automated observation with no human augmentation
Text:KHSE 291025Z AUTO 18014G20KT 1 3/4SM +RA BR FEW008 BKN013 OVC026 24/22 A3014 RMK AO2 RAB17 P0005 T02390222
Temperature: 23.9°C ( 75°F)
Dewpoint: 22.2°C ( 72°F) [RH = 90%]
Pressure (altimeter):30.14 inches Hg (1020.7 mb)
Winds:from the S (180 degrees) at 16 MPH (14 knots; 7.2 m/s) gusting to 23 MPH (20 knots; 10.3 m/s)
Visibility: 1.75 sm ( 2.82 km)
Ceiling:1300 feet AGL
Clouds: few clouds at 800 feet AGL, broken clouds at 1300 feet AGL, overcast cloud deck at 2600 feet AGL
Weather:+RA BR (heavy rain, mist)
QC Flag:automated observation with no human augmentation
Text:KHSE 291000Z AUTO 19009G19KT 6SM BR FEW008 OVC014 24/23 A3012 RMK AO2 P0001 T02440228
Temperature: 24.4°C ( 76°F)
Dewpoint: 22.8°C ( 73°F) [RH = 91%]
Pressure (altimeter):30.12 inches Hg (1020.1 mb)
Winds:from the S (190 degrees) at 10 MPH (9 knots; 4.6 m/s) gusting to 22 MPH (19 knots; 9.8 m/s)
Visibility: 6 sm ( 10 km)
Ceiling:1400 feet AGL
Clouds: few clouds at 800 feet AGL, overcast cloud deck at 1400 feet AGL
Weather:BR (mist)
QC Flag:automated observation with no human augmentation
Text:KHSE 290951Z AUTO 19012G17KT 6SM BR OVC014 24/23 A3013 RMK AO2 RAB25E41 SLP201 P0006 T02440228
Temperature: 24.4°C ( 76°F)
Dewpoint: 22.8°C ( 73°F) [RH = 91%]
Pressure (altimeter):30.13 inches Hg (1020.4 mb) [Sea level pressure: 1020.1 mb]
Winds:from the S (190 degrees) at 14 MPH (12 knots; 6.2 m/s) gusting to 20 MPH (17 knots; 8.7 m/s)
Visibility: 6 sm ( 10 km)
Ceiling:1400 feet AGL
Clouds: overcast cloud deck at 1400 feet AGL
Weather:BR (mist)
QC Flag:automated observation with no human augmentation
Text:KHSE 290948Z AUTO 17011KT 6SM BR BKN014 OVC026 24/23 A3013 RMK AO2 RAB25E41 P0005
Temperature: 24.0°C ( 75°F)
Dewpoint: 23.0°C ( 73°F) [RH = 94%]
Pressure (altimeter):30.13 inches Hg (1020.4 mb)
Winds:from the S (170 degrees) at 13 MPH (11 knots; 5.7 m/s)
Visibility: 6 sm ( 10 km)
Ceiling:1400 feet AGL
Clouds: broken clouds at 1400 feet AGL, overcast cloud deck at 2600 feet AGL
Weather:BR (mist)
QC Flag:automated observation with no human augmentation
Text:KHSE 290941Z AUTO 18009G16KT 6SM BR BKN016 BKN029 OVC040 24/23 A3012 RMK AO2 RAB25E41 P0005 T02440228
Temperature: 24.4°C ( 76°F)
Dewpoint: 22.8°C ( 73°F) [RH = 91%]
Pressure (altimeter):30.12 inches Hg (1020.1 mb)
Winds:from the S (180 degrees) at 10 MPH (9 knots; 4.6 m/s) gusting to 18 MPH (16 knots; 8.2 m/s)
Visibility: 6 sm ( 10 km)
Ceiling:1600 feet AGL
Clouds: broken clouds at 1600 feet AGL, broken clouds at 2900 feet AGL, overcast cloud deck at 4000 feet AGL
Weather:BR (mist)
QC Flag:automated observation with no human augmentation
Text:KHSE 290930Z AUTO 17008KT 2 1/2SM +RA BR SCT014 BKN027 OVC048 24/23 A3012 RMK AO2 RAB25 P0003 T02390228
Temperature: 23.9°C ( 75°F)
Dewpoint: 22.8°C ( 73°F) [RH = 94%]
Pressure (altimeter):30.12 inches Hg (1020.1 mb)
Winds:from the S (170 degrees) at 9 MPH (8 knots; 4.1 m/s)
Visibility: 2.50 sm ( 4.02 km)
Ceiling:2700 feet AGL
Clouds: scattered clouds at 1400 feet AGL, broken clouds at 2700 feet AGL, overcast cloud deck at 4800 feet AGL
Weather:+RA BR (heavy rain, mist)
QC Flag:automated observation with no human augmentation
Text:KHSE 290900Z AUTO 18014KT 8SM FEW016 SCT025 BKN032 24/23 A3012 RMK AO2 T02440228
Temperature: 24.4°C ( 76°F)
Dewpoint: 22.8°C ( 73°F) [RH = 91%]
Pressure (altimeter):30.12 inches Hg (1020.1 mb)
Winds:from the S (180 degrees) at 16 MPH (14 knots; 7.2 m/s)
Visibility: 8 sm ( 13 km)
Ceiling:3200 feet AGL
Clouds: few clouds at 1600 feet AGL, scattered clouds at 2500 feet AGL, broken clouds at 3200 feet AGL
QC Flag:automated observation with no human augmentation
Text:KHSE 290851Z AUTO 18013G17KT 8SM FEW014 SCT022 BKN028 24/23 A3012 RMK AO2 LTG DSNT SE RAE0757 SLP199 P0001 60057 T02440228 55001
Temperature: 24.4°C ( 76°F)
Dewpoint: 22.8°C ( 73°F) [RH = 91%]
Pressure (altimeter):30.12 inches Hg (1020.1 mb) [Sea level pressure: 1019.9 mb]
Winds:from the S (180 degrees) at 15 MPH (13 knots; 6.7 m/s) gusting to 20 MPH (17 knots; 8.7 m/s)
Visibility: 8 sm ( 13 km)
Ceiling:2800 feet AGL
Clouds: few clouds at 1400 feet AGL, scattered clouds at 2200 feet AGL, broken clouds at 2800 feet AGL
QC Flag:automated observation with no human augmentation
Text:KHSE 290835Z AUTO 18009KT 7SM BKN025 BKN045 24/23 A3011 RMK AO2 RAE0757 P0001 T02440228
Temperature: 24.4°C ( 76°F)
Dewpoint: 22.8°C ( 73°F) [RH = 91%]
Pressure (altimeter):30.11 inches Hg (1019.7 mb)
Winds:from the S (180 degrees) at 10 MPH (9 knots; 4.6 m/s)
Visibility: 7 sm ( 11 km)
Ceiling:2500 feet AGL
Clouds: broken clouds at 2500 feet AGL, broken clouds at 4500 feet AGL
QC Flag:automated observation with no human augmentation
Text:KHSE 290756Z AUTO 17009KT 6SM -RA BR SCT036 BKN075 BKN100 24/23 A3011 RMK AO2 P0001 T02390228
Temperature: 23.9°C ( 75°F)
Dewpoint: 22.8°C ( 73°F) [RH = 94%]
Pressure (altimeter):30.11 inches Hg (1019.7 mb)
Winds:from the S (170 degrees) at 10 MPH (9 knots; 4.6 m/s)
Visibility: 6 sm ( 10 km)
Ceiling:7500 feet AGL
Clouds: scattered clouds at 3600 feet AGL, broken clouds at 7500 feet AGL, broken clouds at 10000 feet AGL
Weather:-RA BR (light rain, mist)
QC Flag:automated observation with no human augmentation
Text:KHSE 290746Z AUTO 17011G20KT 2SM RA BR BKN036 OVC075 24/23 A3011 RMK AO2 SLP197 P0048 T02390228
Temperature: 23.9°C ( 75°F)
Dewpoint: 22.8°C ( 73°F) [RH = 94%]
Pressure (altimeter):30.11 inches Hg (1019.7 mb) [Sea level pressure: 1019.7 mb]
Winds:from the S (170 degrees) at 13 MPH (11 knots; 5.7 m/s) gusting to 23 MPH (20 knots; 10.3 m/s)
Visibility: 2.00 sm ( 3.22 km)
Ceiling:3600 feet AGL
Clouds: broken clouds at 3600 feet AGL, overcast cloud deck at 7500 feet AGL
Weather:RA BR (moderate rain, mist)
QC Flag:automated observation with no human augmentation
Text:KHSE 290745Z AUTO 17012KT 2SM +RA BR FEW026 BKN036 OVC070 24/23 A3011 RMK AO2 P0048
Temperature: 24.0°C ( 75°F)
Dewpoint: 23.0°C ( 73°F) [RH = 94%]
Pressure (altimeter):30.11 inches Hg (1019.7 mb)
Winds:from the S (170 degrees) at 14 MPH (12 knots; 6.2 m/s)
Visibility: 2.00 sm ( 3.22 km)
Ceiling:3600 feet AGL
Clouds: few clouds at 2600 feet AGL, broken clouds at 3600 feet AGL, overcast cloud deck at 7000 feet AGL
Weather:+RA BR (heavy rain, mist)
QC Flag:automated observation with no human augmentation
Text:KHSE 290732Z AUTO 18015G22KT 1 1/4SM +RA BR FEW022 BKN030 BKN038 23/22 A3013 RMK AO2 P0034 T02330222
Temperature: 23.3°C ( 74°F)
Dewpoint: 22.2°C ( 72°F) [RH = 94%]
Pressure (altimeter):30.13 inches Hg (1020.4 mb)
Winds:from the S (180 degrees) at 17 MPH (15 knots; 7.7 m/s) gusting to 25 MPH (22 knots; 11.3 m/s)
Visibility: 1.25 sm ( 2.01 km)
Ceiling:3000 feet AGL
Clouds: few clouds at 2200 feet AGL, broken clouds at 3000 feet AGL, broken clouds at 3800 feet AGL
Weather:+RA BR (heavy rain, mist)
QC Flag:automated observation with no human augmentation
Text:KHSE 290718Z AUTO 19016G21KT 1 3/4SM +RA BR SCT030 BKN044 BKN060 24/23 A3012 RMK AO2 VIS 1V5 P0010 T02440228
Temperature: 24.4°C ( 76°F)
Dewpoint: 22.8°C ( 73°F) [RH = 91%]
Pressure (altimeter):30.12 inches Hg (1020.1 mb)
Winds:from the S (190 degrees) at 18 MPH (16 knots; 8.2 m/s) gusting to 24 MPH (21 knots; 10.8 m/s)
Visibility: 1.75 sm ( 2.82 km)
Ceiling:4400 feet AGL
Clouds: scattered clouds at 3000 feet AGL, broken clouds at 4400 feet AGL, broken clouds at 6000 feet AGL
Weather:+RA BR (heavy rain, mist)
QC Flag:automated observation with no human augmentation
Text:KHSE 290700Z AUTO 20010G17KT 3SM RA BR FEW020 BKN035 OVC060 24/23 A3012 RMK AO2 P0004 T02440228
Temperature: 24.4°C ( 76°F)
Dewpoint: 22.8°C ( 73°F) [RH = 91%]
Pressure (altimeter):30.12 inches Hg (1020.1 mb)
Winds:from the SSW (200 degrees) at 12 MPH (10 knots; 5.1 m/s) gusting to 20 MPH (17 knots; 8.7 m/s)
Visibility: 3 sm ( 5 km)
Ceiling:3500 feet AGL
Clouds: few clouds at 2000 feet AGL, broken clouds at 3500 feet AGL, overcast cloud deck at 6000 feet AGL
Weather:RA BR (moderate rain, mist)
QC Flag:automated observation with no human augmentation
Text:KHSE 290651Z AUTO 22010G25KT 1 3/4SM +RA BR FEW021 SCT032 BKN040 24/22 A3012 RMK AO2 RAB44 SLP199 P0008 T02390222
Temperature: 23.9°C ( 75°F)
Dewpoint: 22.2°C ( 72°F) [RH = 90%]
Pressure (altimeter):30.12 inches Hg (1020.1 mb) [Sea level pressure: 1019.9 mb]
Winds:from the SW (220 degrees) at 12 MPH (10 knots; 5.1 m/s) gusting to 29 MPH (25 knots; 12.9 m/s)
Visibility: 1.75 sm ( 2.82 km)
Ceiling:4000 feet AGL
Clouds: few clouds at 2100 feet AGL, scattered clouds at 3200 feet AGL, broken clouds at 4000 feet AGL
Weather:+RA BR (heavy rain, mist)
QC Flag:automated observation with no human augmentation
Text:KHSE 290551Z AUTO 19009KT 9SM SCT021 BKN036 OVC048 26/23 A3013 RMK AO2 SLP201 60001 T02560228 10256 20250 58001
Temperature: 25.6°C ( 78°F)
Dewpoint: 22.8°C ( 73°F) [RH = 85%]
Pressure (altimeter):30.13 inches Hg (1020.4 mb) [Sea level pressure: 1020.1 mb]
Winds:from the S (190 degrees) at 10 MPH (9 knots; 4.6 m/s)
Visibility: 9 sm ( 14 km)
Ceiling:3600 feet AGL
Clouds: scattered clouds at 2100 feet AGL, broken clouds at 3600 feet AGL, overcast cloud deck at 4800 feet AGL
QC Flag:automated observation with no human augmentation
Text:KHSE 290451Z AUTO 18010KT 10SM FEW021 FEW036 SCT045 25/23 A3013 RMK AO2 RAB12E24 SLP202 P0001 T02500228 402780239
Temperature: 25.0°C ( 77°F)
Dewpoint: 22.8°C ( 73°F) [RH = 88%]
Pressure (altimeter):30.13 inches Hg (1020.4 mb) [Sea level pressure: 1020.2 mb]
Winds:from the S (180 degrees) at 12 MPH (10 knots; 5.1 m/s)
Visibility:10 or more sm (16+ km)
Ceiling:at least 12,000 feet AGL
Clouds: few clouds at 2100 feet AGL, few clouds at 3600 feet AGL, scattered clouds at 4500 feet AGL
QC Flag:automated observation with no human augmentation
Text:KHSE 290351Z AUTO 18011KT 10SM FEW019 SCT030 BKN045 26/23 A3013 RMK AO2 SLP204 T02560228
Temperature: 25.6°C ( 78°F)
Dewpoint: 22.8°C ( 73°F) [RH = 85%]
Pressure (altimeter):30.13 inches Hg (1020.4 mb) [Sea level pressure: 1020.4 mb]
Winds:from the S (180 degrees) at 13 MPH (11 knots; 5.7 m/s)
Visibility:10 or more sm (16+ km)
Ceiling:4500 feet AGL
Clouds: few clouds at 1900 feet AGL, scattered clouds at 3000 feet AGL, broken clouds at 4500 feet AGL
QC Flag:automated observation with no human augmentation
Text:KHSE 290251Z AUTO 17013KT 10SM SCT020 25/23 A3013 RMK AO2 SLP202 T02500228 53003
Temperature: 25.0°C ( 77°F)
Dewpoint: 22.8°C ( 73°F) [RH = 88%]
Pressure (altimeter):30.13 inches Hg (1020.4 mb) [Sea level pressure: 1020.2 mb]
Winds:from the S (170 degrees) at 15 MPH (13 knots; 6.7 m/s)
Visibility:10 or more sm (16+ km)
Ceiling:at least 12,000 feet AGL
Clouds: scattered clouds at 2000 feet AGL
QC Flag:automated observation with no human augmentation
Text:KHSE 290241Z AUTO 17012KT 10SM BKN020 25/23 A3013 RMK AO2 T02500228
Temperature: 25.0°C ( 77°F)
Dewpoint: 22.8°C ( 73°F) [RH = 88%]
Pressure (altimeter):30.13 inches Hg (1020.4 mb)
Winds:from the S (170 degrees) at 14 MPH (12 knots; 6.2 m/s)
Visibility:10 or more sm (16+ km)
Ceiling:2000 feet AGL
Clouds: broken clouds at 2000 feet AGL
QC Flag:automated observation with no human augmentation
Text:KHSE 290151Z AUTO 17012KT 10SM FEW019 25/23 A3012 RMK AO2 SLP199 T02500228
Temperature: 25.0°C ( 77°F)
Dewpoint: 22.8°C ( 73°F) [RH = 88%]
Pressure (altimeter):30.12 inches Hg (1020.1 mb) [Sea level pressure: 1019.9 mb]
Winds:from the S (170 degrees) at 14 MPH (12 knots; 6.2 m/s)
Visibility:10 or more sm (16+ km)
Ceiling:at least 12,000 feet AGL
Clouds: few clouds at 1900 feet AGL
QC Flag:automated observation with no human augmentation
Text:KHSE 290051Z AUTO 17011KT 10SM CLR 25/23 A3011 RMK AO2 SLP196 T02500228
Temperature: 25.0°C ( 77°F)
Dewpoint: 22.8°C ( 73°F) [RH = 88%]
Pressure (altimeter):30.11 inches Hg (1019.7 mb) [Sea level pressure: 1019.6 mb]
Winds:from the S (170 degrees) at 13 MPH (11 knots; 5.7 m/s)
Visibility:10 or more sm (16+ km)
Ceiling:at least 12,000 feet AGL
Clouds:sky clear below 12,000 feet AGL
QC Flag:automated observation with no human augmentation
Text:KHSE 282351Z AUTO 17011KT 9SM CLR 25/23 A3012 RMK AO2 RAE02 SLP198 P0000 60014 T02500228 10278 20250 58006
Temperature: 25.0°C ( 77°F)
Dewpoint: 22.8°C ( 73°F) [RH = 88%]
Pressure (altimeter):30.12 inches Hg (1020.1 mb) [Sea level pressure: 1019.8 mb]
Winds:from the S (170 degrees) at 13 MPH (11 knots; 5.7 m/s)
Visibility: 9 sm ( 14 km)
Ceiling:at least 12,000 feet AGL
Clouds:sky clear below 12,000 feet AGL
QC Flag:automated observation with no human augmentation
Text:KHSE 282324Z AUTO 17011KT 9SM FEW025 25/23 A3012 RMK AO2 RAE02 P0000 T02500233
Temperature: 25.0°C ( 77°F)
Dewpoint: 23.3°C ( 74°F) [RH = 90%]
Pressure (altimeter):30.12 inches Hg (1020.1 mb)
Winds:from the S (170 degrees) at 13 MPH (11 knots; 5.7 m/s)
Visibility: 9 sm ( 14 km)
Ceiling:at least 12,000 feet AGL
Clouds: few clouds at 2500 feet AGL
QC Flag:automated observation with no human augmentation
Text:KHSE 282251Z AUTO 17008KT 6SM -RA BR SCT015 BKN023 OVC120 25/23 A3013 RMK AO2 SLP202 P0002 T02500233
Temperature: 25.0°C ( 77°F)
Dewpoint: 23.3°C ( 74°F) [RH = 90%]
Pressure (altimeter):30.13 inches Hg (1020.4 mb) [Sea level pressure: 1020.2 mb]
Winds:from the S (170 degrees) at 9 MPH (8 knots; 4.1 m/s)
Visibility: 6 sm ( 10 km)
Ceiling:2300 feet AGL
Clouds: scattered clouds at 1500 feet AGL, broken clouds at 2300 feet AGL, overcast cloud deck at 12000 feet AGL
Weather:-RA BR (light rain, mist)
QC Flag:automated observation with no human augmentation
Text:KHSE 282223Z AUTO 18008KT 7SM -RA FEW017 BKN027 OVC047 26/24 A3013 RMK AO2 P0001 T02560239
Temperature: 25.6°C ( 78°F)
Dewpoint: 23.9°C ( 75°F) [RH = 90%]
Pressure (altimeter):30.13 inches Hg (1020.4 mb)
Winds:from the S (180 degrees) at 9 MPH (8 knots; 4.1 m/s)
Visibility: 7 sm ( 11 km)
Ceiling:2700 feet AGL
Clouds: few clouds at 1700 feet AGL, broken clouds at 2700 feet AGL, overcast cloud deck at 4700 feet AGL
Weather:-RA (light rain)
QC Flag:automated observation with no human augmentation
Text:KHSE 282154Z AUTO 17003KT 3SM -RA BR FEW016 SCT024 BKN035 26/24 A3013 RMK AO2 P0001 T02610244
Temperature: 26.1°C ( 79°F)
Dewpoint: 24.4°C ( 76°F) [RH = 90%]
Pressure (altimeter):30.13 inches Hg (1020.4 mb)
Winds:from the S (170 degrees) at 3 MPH (3 knots; 1.5 m/s)
Visibility: 3 sm ( 5 km)
Ceiling:3500 feet AGL
Clouds: few clouds at 1600 feet AGL, scattered clouds at 2400 feet AGL, broken clouds at 3500 feet AGL
Weather:-RA BR (light rain, mist)
QC Flag:automated observation with no human augmentation
Text:KHSE 282151Z AUTO 16003KT 1 1/2SM RA BR FEW016 BKN032 OVC049 26/24 A3013 RMK AO2 RAB02E17B41 SLP203 P0011 T02610244
Temperature: 26.1°C ( 79°F)
Dewpoint: 24.4°C ( 76°F) [RH = 90%]
Pressure (altimeter):30.13 inches Hg (1020.4 mb) [Sea level pressure: 1020.3 mb]
Winds:from the SSE (160 degrees) at 3 MPH (3 knots; 1.5 m/s)
Visibility: 1.50 sm ( 2.41 km)
Ceiling:3200 feet AGL
Clouds: few clouds at 1600 feet AGL, broken clouds at 3200 feet AGL, overcast cloud deck at 4900 feet AGL
Weather:RA BR (moderate rain, mist)
QC Flag:automated observation with no human augmentation
Text:KHSE 282144Z AUTO 15007KT 1 3/4SM RA SCT016 BKN024 BKN038 26/23 A3014 RMK AO2 RAB02E17B41 P0006 T02560228
Temperature: 25.6°C ( 78°F)
Dewpoint: 22.8°C ( 73°F) [RH = 85%]
Pressure (altimeter):30.14 inches Hg (1020.7 mb)
Winds:from the SSE (150 degrees) at 8 MPH (7 knots; 3.6 m/s)
Visibility: 1.75 sm ( 2.82 km)
Ceiling:2400 feet AGL
Clouds: scattered clouds at 1600 feet AGL, broken clouds at 2400 feet AGL, broken clouds at 3800 feet AGL
Weather:RA (moderate rain)
QC Flag:automated observation with no human augmentation
Text:KHSE 282121Z AUTO 25003KT 9SM SCT016 BKN028 BKN049 26/24 A3014 RMK AO2 RAB02E17 P0004 T02560239
Temperature: 25.6°C ( 78°F)
Dewpoint: 23.9°C ( 75°F) [RH = 90%]
Pressure (altimeter):30.14 inches Hg (1020.7 mb)
Winds:from the WSW (250 degrees) at 3 MPH (3 knots; 1.5 m/s)
Visibility: 9 sm ( 14 km)
Ceiling:2800 feet AGL
Clouds: scattered clouds at 1600 feet AGL, broken clouds at 2800 feet AGL, broken clouds at 4900 feet AGL
QC Flag:automated observation with no human augmentation
Text:KHSE 282111Z AUTO 23004KT 2SM -RA BR BKN016 BKN028 BKN047 26/24 A3014 RMK AO2 RAB02 P0004 T02560239
Temperature: 25.6°C ( 78°F)
Dewpoint: 23.9°C ( 75°F) [RH = 90%]
Pressure (altimeter):30.14 inches Hg (1020.7 mb)
Winds:from the SW (230 degrees) at 5 MPH (4 knots; 2.1 m/s)
Visibility: 2.00 sm ( 3.22 km)
Ceiling:1600 feet AGL
Clouds: broken clouds at 1600 feet AGL, broken clouds at 2800 feet AGL, broken clouds at 4700 feet AGL
Weather:-RA BR (light rain, mist)
QC Flag:automated observation with no human augmentation
Text:KHSE 282051Z AUTO 25006KT 9SM SCT014 SCT019 BKN028 26/23 A3014 RMK AO2 SLP205 P0001 60001 T02560228 57002
Temperature: 25.6°C ( 78°F)
Dewpoint: 22.8°C ( 73°F) [RH = 85%]
Pressure (altimeter):30.14 inches Hg (1020.7 mb) [Sea level pressure: 1020.5 mb]
Winds:from the WSW (250 degrees) at 7 MPH (6 knots; 3.1 m/s)
Visibility: 9 sm ( 14 km)
Ceiling:2800 feet AGL
Clouds: scattered clouds at 1400 feet AGL, scattered clouds at 1900 feet AGL, broken clouds at 2800 feet AGL
QC Flag:automated observation with no human augmentation
Text:KHSE 281951Z AUTO 21006KT 8SM FEW020 FEW033 SCT100 27/24 A3015 RMK AO2 RAB1856E07B26E47 SLP207 P0000 T02670239
Temperature: 26.7°C ( 80°F)
Dewpoint: 23.9°C ( 75°F) [RH = 85%]
Pressure (altimeter):30.15 inches Hg (1021.1 mb) [Sea level pressure: 1020.7 mb]
Winds:from the SSW (210 degrees) at 7 MPH (6 knots; 3.1 m/s)
Visibility: 8 sm ( 13 km)
Ceiling:at least 12,000 feet AGL
Clouds: few clouds at 2000 feet AGL, few clouds at 3300 feet AGL, scattered clouds at 10000 feet AGL
QC Flag:automated observation with no human augmentation
Text:KHSE 281943Z AUTO 20007KT 8SM -RA SCT022 BKN033 BKN050 26/24 A3014 RMK AO2 RAB1856E07B26 P0000 T02610239
Temperature: 26.1°C ( 79°F)
Dewpoint: 23.9°C ( 75°F) [RH = 88%]
Pressure (altimeter):30.14 inches Hg (1020.7 mb)
Winds:from the SSW (200 degrees) at 8 MPH (7 knots; 3.6 m/s)
Visibility: 8 sm ( 13 km)
Ceiling:3300 feet AGL
Clouds: scattered clouds at 2200 feet AGL, broken clouds at 3300 feet AGL, broken clouds at 5000 feet AGL
Weather:-RA (light rain)
QC Flag:automated observation with no human augmentation
Text:KHSE 281927Z AUTO 20007KT 5SM -RA SCT019 BKN025 BKN037 26/23 A3015 RMK AO2 RAB1856E07B26 P0000 T02610233
Temperature: 26.1°C ( 79°F)
Dewpoint: 23.3°C ( 74°F) [RH = 85%]
Pressure (altimeter):30.15 inches Hg (1021.1 mb)
Winds:from the SSW (200 degrees) at 8 MPH (7 knots; 3.6 m/s)
Visibility: 5 sm ( 8 km)
Ceiling:2500 feet AGL
Clouds: scattered clouds at 1900 feet AGL, broken clouds at 2500 feet AGL, broken clouds at 3700 feet AGL
Weather:-RA (light rain)
QC Flag:automated observation with no human augmentation
Text:KHSE 281851Z AUTO 22005KT 10SM SCT022 SCT031 SCT060 27/23 A3015 RMK AO2 RAB37E46 SLP207 P0000 T02720228
Temperature: 27.2°C ( 81°F)
Dewpoint: 22.8°C ( 73°F) [RH = 77%]
Pressure (altimeter):30.15 inches Hg (1021.1 mb) [Sea level pressure: 1020.7 mb]
Winds:from the SW (220 degrees) at 6 MPH (5 knots; 2.6 m/s)
Visibility:10 or more sm (16+ km)
Ceiling:at least 12,000 feet AGL
Clouds: scattered clouds at 2200 feet AGL, scattered clouds at 3100 feet AGL, scattered clouds at 6000 feet AGL
QC Flag:automated observation with no human augmentation
Text:KHSE 281812Z AUTO 22006KT 10SM BKN024 27/23 A3015 RMK AO2 T02720228
Temperature: 27.2°C ( 81°F)
Dewpoint: 22.8°C ( 73°F) [RH = 77%]
Pressure (altimeter):30.15 inches Hg (1021.1 mb)
Winds:from the SW (220 degrees) at 7 MPH (6 knots; 3.1 m/s)
Visibility:10 or more sm (16+ km)
Ceiling:2400 feet AGL
Clouds: broken clouds at 2400 feet AGL
QC Flag:automated observation with no human augmentation
Text:KHSE 281751Z AUTO 19010KT 10SM FEW020 28/23 A3015 RMK AO2 SLP208 60016 T02780228 10278 20239 56006
Temperature: 27.8°C ( 82°F)
Dewpoint: 22.8°C ( 73°F) [RH = 74%]
Pressure (altimeter):30.15 inches Hg (1021.1 mb) [Sea level pressure: 1020.8 mb]
Winds:from the S (190 degrees) at 12 MPH (10 knots; 5.1 m/s)
Visibility:10 or more sm (16+ km)
Ceiling:at least 12,000 feet AGL
Clouds: few clouds at 2000 feet AGL
QC Flag:automated observation with no human augmentation
Text:KHSE 281651Z AUTO 18010KT 10SM CLR 27/23 A3015 RMK AO2 SLP209 T02670228
Temperature: 26.7°C ( 80°F)
Dewpoint: 22.8°C ( 73°F) [RH = 79%]
Pressure (altimeter):30.15 inches Hg (1021.1 mb) [Sea level pressure: 1020.9 mb]
Winds:from the S (180 degrees) at 12 MPH (10 knots; 5.1 m/s)
Visibility:10 or more sm (16+ km)
Ceiling:at least 12,000 feet AGL
Clouds:sky clear below 12,000 feet AGL
QC Flag:automated observation with no human augmentation
Text:KHSE 281251Z AUTO 16007KT 3SM BR FEW031 FEW065 OVC085 24/23 A3016 RMK AO2 RAE51 SLP214 P0015 T02440228
Temperature: 24.4°C ( 76°F)
Dewpoint: 22.8°C ( 73°F) [RH = 91%]
Pressure (altimeter):30.16 inches Hg (1021.4 mb) [Sea level pressure: 1021.4 mb]
Winds:from the SSE (160 degrees) at 8 MPH (7 knots; 3.6 m/s)
Visibility: 3 sm ( 5 km)
Ceiling:8500 feet AGL
Clouds: few clouds at 3100 feet AGL, few clouds at 6500 feet AGL, overcast cloud deck at 8500 feet AGL
Weather:BR (mist)
QC Flag:automated observation with no human augmentation
Text:KHSE 281233Z AUTO 15009KT 2SM RA BR FEW012 BKN070 OVC085 24/23 A3016 RMK AO2 P0013 T02390228
Temperature: 23.9°C ( 75°F)
Dewpoint: 22.8°C ( 73°F) [RH = 94%]
Pressure (altimeter):30.16 inches Hg (1021.4 mb)
Winds:from the SSE (150 degrees) at 10 MPH (9 knots; 4.6 m/s)
Visibility: 2.00 sm ( 3.22 km)
Ceiling:7000 feet AGL
Clouds: few clouds at 1200 feet AGL, broken clouds at 7000 feet AGL, overcast cloud deck at 8500 feet AGL
Weather:RA BR (moderate rain, mist)
QC Flag:automated observation with no human augmentation